美保飛行場の過去48時間の天気

美保飛行場 (Miho)

現在時刻: 10/21 20:15 JST (10/21 11:15 UTC) 以下の時間は現地時間です。

過去48時間のMETAR気象情報
時間 風向 風速(m/s) 視程 気温(℃) 湿度(%) 気圧(hPa) 天気現象
21 20:00 北北東 2 10km以上 21 73 1015 弱いしゅう雨
21 19:00 5 10km以上 20 78 1015 弱いしゅう雨
21 18:00 東北東 3 10km以上 21 73 1014
21 17:00 東北東 5 10km以上 20 73 1014
21 16:00 東北東 7 10km以上 20 73 1014
21 15:00 東北東 6 10km以上 20 73 1014
21 14:00 東北東 6 10km以上 20 73 1014
21 13:00 東北東 7 10km以上 20 73 1015
21 12:00 東北東 7 10km以上 21 69 1016
21 11:00 東北東 6 10km以上 20 68 1017
21 10:00 6 10km以上 20 68 1018
21 09:00 不定 1 10km以上 18 73 1018
21 08:00 不定 1 10km以上 16 77 1018
21 07:00 南南西 2 10km以上 14 94 1018
21 06:00 2 10km以上 14 88 1017
20 13:00 北東 6 10km以上 21 60 1020
20 12:00 北東 6 10km以上 22 60 1020
20 11:00 北東 5 10km以上 22 60 1021
20 10:00 北東 5 10km以上 21 69 1021
20 09:00 北東 4 10km以上 20 73 1021
20 08:00 不定 2 10km以上 18 88 1021
20 07:00 南南西 2 10km以上 17 94 1020 部分霧
20 06:00 不定 1 10km以上 16 94 1020
20 05:00 南西 3 10km以上 17 94 1019
20 04:00 南西 2 10km以上 16 94 1019
20 03:00 南西 2 10km以上 16 94 1019 部分霧
20 02:00 西 2 10km以上 17 94 1019
20 01:00 不定 1 10km以上 18 94 1019
20 00:00 西 1 10km以上 18 88 1019
19 23:00 不定 1 10km以上 19 88 1019
19 22:00 北北東 3 10km以上 19 88 1019
19 21:00 北北東 3 10km以上 20 78 1019 弱いしゅう雨
RJOH 211100Z 03003KT 360V060 9999 -SHRA FEW015 SCT020 BKN040 21/16 Q1015
RJOH 211000Z 08009KT 9999 -SHRA FEW015 BKN020 20/16 Q1015
RJOH 210900Z 07005KT 9999 FEW015 BKN020 21/16 Q1014
RJOH 210800Z 07010KT 9999 FEW015 BKN020 BKN040 20/15 Q1014
RJOH 210700Z 07013KT 9999 FEW015 BKN020 BKN040 20/15 Q1014
RJOH 210600Z 07012KT 9999 FEW025 BKN040 BKN180 20/15 Q1014
RJOH 210500Z 06012KT 9999 FEW040 BKN180 BKN220 20/15 Q1014
RJOH 210400Z 06013KT 9999 FEW040 BKN220 20/15 Q1015
RJOH 210300Z 07013KT 9999 FEW035 BKN230 21/15 Q1016
RJOH 210200Z 07012KT 9999 FEW030 BKN230 20/14 Q1017
RJOH 210100Z 08012KT 9999 FEW030 BKN230 20/14 Q1018
RJOH 210000Z VRB02KT 9999 FEW030 BKN230 18/13 Q1018
RJOH 202300Z VRB02KT 9999 FEW006 BKN250 16/12 Q1018
RJOH 202200Z 20003KT 9999 FEW008 BKN250 14/13 Q1018
RJOH 202100Z 19003KT 9999 FEW030 BKN250 14/12 Q1017
RJOH 200400Z 05011KT 9999 FEW030 BKN250 21/13 Q1020
RJOH 200300Z 05011KT 9999 FEW025 BKN300 22/14 Q1020
RJOH 200200Z 05010KT 9999 FEW015 BKN025 BKN300 22/14 Q1021
RJOH 200100Z 05010KT 9999 FEW015 SCT025 BKN050 21/15 Q1021
RJOH 200000Z 05008KT 9999 FEW005 SCT025 BKN300 20/15 Q1021
RJOH 192300Z VRB03KT 9999 FEW003 SCT025 BKN300 18/16 Q1021
RJOH 192200Z 21003KT 9999 PRFG FEW003 SCT025 BKN250 17/16 Q1020
RJOH 192100Z VRB01KT 9999 FEW002 SCT025 BKN/// 16/15 Q1020
RJOH 192000Z 23005KT 9999 FEW015 SCT020 17/16 Q1019
RJOH 191900Z 22003KT 9999 FEW010 SCT020 16/15 Q1019
RJOH 191800Z 22003KT 9999 PRFG FEW010 SCT015 16/15 Q1019
RJOH 191700Z 26003KT 9999 FEW010 SCT050 17/16 Q1019
RJOH 191600Z VRB02KT 9999 FEW010 SCT015 BKN050 18/17 Q1019
RJOH 191500Z 26002KT 9999 FEW015 BKN050 18/16 Q1019
RJOH 191400Z VRB01KT 9999 FEW015 SCT040 BKN050 19/17 Q1019
RJOH 191300Z 02006KT 9999 FEW015 BKN050 19/17 Q1019
RJOH 191200Z 03006KT 9999 -SHRA FEW015 SCT035 BKN050 20/16 Q1019